sensor_id;sensor_type;location;lat;lon;timestamp;pressure;altitude;pressure_sealevel;temperature
15575;BMP180;7888;46.748;8.102;2023-03-01T00:01:14;94224.00;;;6.50
15575;BMP180;7888;46.748;8.102;2023-03-01T00:03:42;94214.00;;;6.50
15575;BMP180;7888;46.748;8.102;2023-03-01T00:06:08;94232.00;;;6.50
15575;BMP180;7888;46.748;8.102;2023-03-01T00:08:35;94228.00;;;6.50
15575;BMP180;7888;46.748;8.102;2023-03-01T00:13:35;94222.00;;;6.50
15575;BMP180;7888;46.748;8.102;2023-03-01T00:16:08;94226.00;;;6.50
15575;BMP180;7888;46.748;8.102;2023-03-01T00:18:34;94227.00;;;6.40
15575;BMP180;7888;46.748;8.102;2023-03-01T00:21:00;94212.00;;;6.50
15575;BMP180;7888;46.748;8.102;2023-03-01T00:23:26;94211.00;;;6.40
15575;BMP180;7888;46.748;8.102;2023-03-01T00:25:53;94222.00;;;6.40
15575;BMP180;7888;46.748;8.102;2023-03-01T00:28:20;94210.00;;;6.40
15575;BMP180;7888;46.748;8.102;2023-03-01T00:30:46;94223.00;;;6.40
15575;BMP180;7888;46.748;8.102;2023-03-01T00:33:12;94215.00;;;6.40
15575;BMP180;7888;46.748;8.102;2023-03-01T00:35:39;94215.00;;;6.40
15575;BMP180;7888;46.748;8.102;2023-03-01T00:38:05;94218.00;;;6.40
15575;BMP180;7888;46.748;8.102;2023-03-01T00:40:34;94213.00;;;6.40
15575;BMP180;7888;46.748;8.102;2023-03-01T00:43:02;94219.00;;;6.30
15575;BMP180;7888;46.748;8.102;2023-03-01T00:45:28;94210.00;;;6.30
15575;BMP180;7888;46.748;8.102;2023-03-01T00:47:54;94214.00;;;6.30
15575;BMP180;7888;46.748;8.102;2023-03-01T00:50:20;94217.00;;;6.20
15575;BMP180;7888;46.748;8.102;2023-03-01T00:52:46;94214.00;;;6.20
15575;BMP180;7888;46.748;8.102;2023-03-01T00:55:12;94201.00;;;6.20
15575;BMP180;7888;46.748;8.102;2023-03-01T00:57:38;94210.00;;;6.10
15575;BMP180;7888;46.748;8.102;2023-03-01T01:00:06;94206.00;;;6.00
15575;BMP180;7888;46.748;8.102;2023-03-01T01:02:33;94200.00;;;6.00
15575;BMP180;7888;46.748;8.102;2023-03-01T01:04:59;94206.00;;;6.00
15575;BMP180;7888;46.748;8.102;2023-03-01T01:07:25;94212.00;;;6.00
15575;BMP180;7888;46.748;8.102;2023-03-01T01:09:51;94209.00;;;5.90
15575;BMP180;7888;46.748;8.102;2023-03-01T01:12:17;94210.00;;;5.80
15575;BMP180;7888;46.748;8.102;2023-03-01T01:14:43;94213.00;;;5.80
15575;BMP180;7888;46.748;8.102;2023-03-01T01:17:09;94198.00;;;5.70
15575;BMP180;7888;46.748;8.102;2023-03-01T01:19:35;94212.00;;;5.70
15575;BMP180;7888;46.748;8.102;2023-03-01T01:22:01;94196.00;;;5.70
15575;BMP180;7888;46.748;8.102;2023-03-01T01:24:27;94197.00;;;5.60
15575;BMP180;7888;46.748;8.102;2023-03-01T01:26:53;94182.00;;;5.60
15575;BMP180;7888;46.748;8.102;2023-03-01T01:29:19;94196.00;;;5.60
15575;BMP180;7888;46.748;8.102;2023-03-01T01:31:45;94198.00;;;5.60
15575;BMP180;7888;46.748;8.102;2023-03-01T01:34:18;94187.00;;;5.60
15575;BMP180;7888;46.748;8.102;2023-03-01T01:36:48;94192.00;;;5.60
15575;BMP180;7888;46.748;8.102;2023-03-01T01:39:15;94176.00;;;5.60
15575;BMP180;7888;46.748;8.102;2023-03-01T01:41:42;94162.00;;;5.60
15575;BMP180;7888;46.748;8.102;2023-03-01T01:44:27;94170.00;;;5.60
15575;BMP180;7888;46.748;8.102;2023-03-01T01:47:14;94164.00;;;5.70
15575;BMP180;7888;46.748;8.102;2023-03-01T01:49:55;94163.00;;;5.70
15575;BMP180;7888;46.748;8.102;2023-03-01T01:52:25;94168.00;;;5.70
15575;BMP180;7888;46.748;8.102;2023-03-01T01:54:59;94154.00;;;5.60
15575;BMP180;7888;46.748;8.102;2023-03-01T01:57:32;94160.00;;;5.60
15575;BMP180;7888;46.748;8.102;2023-03-01T02:00:12;94161.00;;;5.60
15575;BMP180;7888;46.748;8.102;2023-03-01T02:02:40;94151.00;;;5.50
15575;BMP180;7888;46.748;8.102;2023-03-01T02:08:05;94148.00;;;5.40
15575;BMP180;7888;46.748;8.102;2023-03-01T02:10:34;94147.00;;;5.30
15575;BMP180;7888;46.748;8.102;2023-03-01T02:13:02;94152.00;;;5.40
15575;BMP180;7888;46.748;8.102;2023-03-01T02:15:33;94142.00;;;5.40
15575;BMP180;7888;46.748;8.102;2023-03-01T02:18:01;94158.00;;;5.40
15575;BMP180;7888;46.748;8.102;2023-03-01T02:23:35;94145.00;;;5.30
15575;BMP180;7888;46.748;8.102;2023-03-01T02:28:40;94134.00;;;5.30
15575;BMP180;7888;46.748;8.102;2023-03-01T02:31:10;94148.00;;;5.30
15575;BMP180;7888;46.748;8.102;2023-03-01T02:33:58;94139.00;;;5.30
15575;BMP180;7888;46.748;8.102;2023-03-01T02:36:29;94143.00;;;5.20
15575;BMP180;7888;46.748;8.102;2023-03-01T02:39:03;94129.00;;;5.20
15575;BMP180;7888;46.748;8.102;2023-03-01T02:41:35;94136.00;;;5.20
15575;BMP180;7888;46.748;8.102;2023-03-01T02:44:03;94131.00;;;5.30
15575;BMP180;7888;46.748;8.102;2023-03-01T02:46:29;94129.00;;;5.30
15575;BMP180;7888;46.748;8.102;2023-03-01T02:48:58;94118.00;;;5.30
15575;BMP180;7888;46.748;8.102;2023-03-01T02:56:36;94113.00;;;5.30
15575;BMP180;7888;46.748;8.102;2023-03-01T02:59:02;94118.00;;;5.30
15575;BMP180;7888;46.748;8.102;2023-03-01T03:01:29;94113.00;;;5.30
15575;BMP180;7888;46.748;8.102;2023-03-01T03:04:14;94111.00;;;5.30
15575;BMP180;7888;46.748;8.102;2023-03-01T03:06:48;94119.00;;;5.30
15575;BMP180;7888;46.748;8.102;2023-03-01T03:09:16;94108.00;;;5.30
15575;BMP180;7888;46.748;8.102;2023-03-01T03:11:43;94111.00;;;5.30
15575;BMP180;7888;46.748;8.102;2023-03-01T03:14:11;94103.00;;;5.40
15575;BMP180;7888;46.748;8.102;2023-03-01T03:16:47;94114.00;;;5.40
15575;BMP180;7888;46.748;8.102;2023-03-01T03:19:14;94108.00;;;5.40
15575;BMP180;7888;46.748;8.102;2023-03-01T03:21:40;94102.00;;;5.40
15575;BMP180;7888;46.748;8.102;2023-03-01T03:24:05;94108.00;;;5.40
15575;BMP180;7888;46.748;8.102;2023-03-01T03:26:32;94104.00;;;5.30
15575;BMP180;7888;46.748;8.102;2023-03-01T03:28:58;94101.00;;;5.30
15575;BMP180;7888;46.748;8.102;2023-03-01T03:31:24;94096.00;;;5.40
15575;BMP180;7888;46.748;8.102;2023-03-01T03:33:50;94091.00;;;5.40
15575;BMP180;7888;46.748;8.102;2023-03-01T03:36:19;94094.00;;;5.40
15575;BMP180;7888;46.748;8.102;2023-03-01T03:38:46;94095.00;;;5.40
15575;BMP180;7888;46.748;8.102;2023-03-01T03:41:13;94091.00;;;5.30
15575;BMP180;7888;46.748;8.102;2023-03-01T03:43:40;94090.00;;;5.30
15575;BMP180;7888;46.748;8.102;2023-03-01T03:46:10;94097.00;;;5.30
15575;BMP180;7888;46.748;8.102;2023-03-01T03:48:40;94107.00;;;5.30
15575;BMP180;7888;46.748;8.102;2023-03-01T03:51:06;94091.00;;;5.30
15575;BMP180;7888;46.748;8.102;2023-03-01T03:53:33;94105.00;;;5.30
15575;BMP180;7888;46.748;8.102;2023-03-01T03:55:59;94104.00;;;5.40
15575;BMP180;7888;46.748;8.102;2023-03-01T03:58:26;94105.00;;;5.40
15575;BMP180;7888;46.748;8.102;2023-03-01T04:00:56;94111.00;;;5.40
15575;BMP180;7888;46.748;8.102;2023-03-01T04:03:25;94100.00;;;5.40
15575;BMP180;7888;46.748;8.102;2023-03-01T04:05:51;94092.00;;;5.30
15575;BMP180;7888;46.748;8.102;2023-03-01T04:08:19;94082.00;;;5.30
15575;BMP180;7888;46.748;8.102;2023-03-01T04:10:52;94095.00;;;5.20
15575;BMP180;7888;46.748;8.102;2023-03-01T04:13:21;94080.00;;;5.20
15575;BMP180;7888;46.748;8.102;2023-03-01T04:15:52;94078.00;;;5.20
15575;BMP180;7888;46.748;8.102;2023-03-01T04:18:21;94084.00;;;5.20
15575;BMP180;7888;46.748;8.102;2023-03-01T04:20:47;94075.00;;;5.20
15575;BMP180;7888;46.748;8.102;2023-03-01T04:23:19;94075.00;;;5.10
15575;BMP180;7888;46.748;8.102;2023-03-01T04:25:58;94087.00;;;5.10
15575;BMP180;7888;46.748;8.102;2023-03-01T04:30:58;94073.00;;;5.00
15575;BMP180;7888;46.748;8.102;2023-03-01T04:33:25;94074.00;;;5.00
15575;BMP180;7888;46.748;8.102;2023-03-01T04:35:52;94071.00;;;5.00
15575;BMP180;7888;46.748;8.102;2023-03-01T04:38:18;94080.00;;;4.90
15575;BMP180;7888;46.748;8.102;2023-03-01T04:40:45;94077.00;;;4.90
15575;BMP180;7888;46.748;8.102;2023-03-01T04:43:12;94083.00;;;4.80
15575;BMP180;7888;46.748;8.102;2023-03-01T04:45:41;94065.00;;;4.80
15575;BMP180;7888;46.748;8.102;2023-03-01T04:48:07;94082.00;;;4.80
15575;BMP180;7888;46.748;8.102;2023-03-01T04:50:34;94076.00;;;4.70
15575;BMP180;7888;46.748;8.102;2023-03-01T04:53:00;94058.00;;;4.70
15575;BMP180;7888;46.748;8.102;2023-03-01T04:55:27;94076.00;;;4.70
15575;BMP180;7888;46.748;8.102;2023-03-01T04:57:54;94060.00;;;4.70
15575;BMP180;7888;46.748;8.102;2023-03-01T05:00:22;94079.00;;;4.70
15575;BMP180;7888;46.748;8.102;2023-03-01T05:02:58;94065.00;;;4.70
15575;BMP180;7888;46.748;8.102;2023-03-01T05:05:33;94053.00;;;4.70
15575;BMP180;7888;46.748;8.102;2023-03-01T05:08:03;94061.00;;;4.70
15575;BMP180;7888;46.748;8.102;2023-03-01T05:10:31;94065.00;;;4.70
15575;BMP180;7888;46.748;8.102;2023-03-01T05:12:59;94073.00;;;4.70
15575;BMP180;7888;46.748;8.102;2023-03-01T05:15:26;94049.00;;;4.70
15575;BMP180;7888;46.748;8.102;2023-03-01T05:17:58;94056.00;;;4.80
15575;BMP180;7888;46.748;8.102;2023-03-01T05:20:26;94052.00;;;4.80
15575;BMP180;7888;46.748;8.102;2023-03-01T05:22:57;94041.00;;;4.80
15575;BMP180;7888;46.748;8.102;2023-03-01T05:25:24;94045.00;;;4.80
15575;BMP180;7888;46.748;8.102;2023-03-01T05:27:50;94048.00;;;4.80
15575;BMP180;7888;46.748;8.102;2023-03-01T05:30:17;94043.00;;;4.80
15575;BMP180;7888;46.748;8.102;2023-03-01T05:32:49;94049.00;;;4.80
15575;BMP180;7888;46.748;8.102;2023-03-01T05:35:17;94045.00;;;4.80
15575;BMP180;7888;46.748;8.102;2023-03-01T05:37:45;94053.00;;;4.80
15575;BMP180;7888;46.748;8.102;2023-03-01T05:40:15;94051.00;;;4.80
15575;BMP180;7888;46.748;8.102;2023-03-01T05:42:53;94046.00;;;4.90
15575;BMP180;7888;46.748;8.102;2023-03-01T05:45:22;94051.00;;;4.90
15575;BMP180;7888;46.748;8.102;2023-03-01T05:47:49;94027.00;;;4.80
15575;BMP180;7888;46.748;8.102;2023-03-01T05:50:22;94053.00;;;4.70
15575;BMP180;7888;46.748;8.102;2023-03-01T05:52:52;94040.00;;;4.70
15575;BMP180;7888;46.748;8.102;2023-03-01T05:55:20;94024.00;;;4.60
15575;BMP180;7888;46.748;8.102;2023-03-01T05:57:47;94033.00;;;4.60
15575;BMP180;7888;46.748;8.102;2023-03-01T06:00:15;94045.00;;;4.60
15575;BMP180;7888;46.748;8.102;2023-03-01T06:02:42;94025.00;;;4.50
15575;BMP180;7888;46.748;8.102;2023-03-01T06:05:10;94038.00;;;4.50
15575;BMP180;7888;46.748;8.102;2023-03-01T06:07:37;94032.00;;;4.40
15575;BMP180;7888;46.748;8.102;2023-03-01T06:10:05;94027.00;;;4.40
15575;BMP180;7888;46.748;8.102;2023-03-01T06:12:33;94022.00;;;4.40
15575;BMP180;7888;46.748;8.102;2023-03-01T06:14:59;94030.00;;;4.40
15575;BMP180;7888;46.748;8.102;2023-03-01T06:17:25;94032.00;;;4.40
15575;BMP180;7888;46.748;8.102;2023-03-01T06:19:51;94043.00;;;4.40
15575;BMP180;7888;46.748;8.102;2023-03-01T06:22:17;94038.00;;;4.40
15575;BMP180;7888;46.748;8.102;2023-03-01T06:24:43;94030.00;;;4.50
15575;BMP180;7888;46.748;8.102;2023-03-01T06:27:08;94035.00;;;4.50
15575;BMP180;7888;46.748;8.102;2023-03-01T06:29:34;94034.00;;;4.60
15575;BMP180;7888;46.748;8.102;2023-03-01T06:32:00;94017.00;;;4.60
15575;BMP180;7888;46.748;8.102;2023-03-01T06:34:26;94030.00;;;4.60
15575;BMP180;7888;46.748;8.102;2023-03-01T06:36:51;94026.00;;;4.60
15575;BMP180;7888;46.748;8.102;2023-03-01T06:39:17;94022.00;;;4.70
15575;BMP180;7888;46.748;8.102;2023-03-01T06:41:44;94026.00;;;4.70
15575;BMP180;7888;46.748;8.102;2023-03-01T06:44:10;94022.00;;;4.70
15575;BMP180;7888;46.748;8.102;2023-03-01T06:46:36;94025.00;;;4.70
15575;BMP180;7888;46.748;8.102;2023-03-01T06:49:02;94029.00;;;4.70
15575;BMP180;7888;46.748;8.102;2023-03-01T06:51:33;94014.00;;;4.70
15575;BMP180;7888;46.748;8.102;2023-03-01T06:53:58;94022.00;;;4.70
15575;BMP180;7888;46.748;8.102;2023-03-01T06:56:24;94020.00;;;4.70
15575;BMP180;7888;46.748;8.102;2023-03-01T06:58:50;94026.00;;;4.70
15575;BMP180;7888;46.748;8.102;2023-03-01T07:01:16;94030.00;;;4.80
15575;BMP180;7888;46.748;8.102;2023-03-01T07:03:41;94031.00;;;4.80
15575;BMP180;7888;46.748;8.102;2023-03-01T07:06:10;94009.00;;;4.70
15575;BMP180;7888;46.748;8.102;2023-03-01T07:08:35;94024.00;;;4.80
15575;BMP180;7888;46.748;8.102;2023-03-01T07:11:01;94025.00;;;4.80
15575;BMP180;7888;46.748;8.102;2023-03-01T07:13:31;94026.00;;;4.90
15575;BMP180;7888;46.748;8.102;2023-03-01T07:15:57;94017.00;;;4.90
15575;BMP180;7888;46.748;8.102;2023-03-01T07:18:23;94013.00;;;4.80
15575;BMP180;7888;46.748;8.102;2023-03-01T07:20:49;94011.00;;;4.90
15575;BMP180;7888;46.748;8.102;2023-03-01T07:23:15;94019.00;;;4.90
15575;BMP180;7888;46.748;8.102;2023-03-01T07:25:41;94017.00;;;4.90
15575;BMP180;7888;46.748;8.102;2023-03-01T07:28:07;94008.00;;;4.80
15575;BMP180;7888;46.748;8.102;2023-03-01T07:30:33;94014.00;;;4.80
15575;BMP180;7888;46.748;8.102;2023-03-01T07:32:59;94021.00;;;4.70
15575;BMP180;7888;46.748;8.102;2023-03-01T07:35:26;94006.00;;;4.70
15575;BMP180;7888;46.748;8.102;2023-03-01T07:37:53;94003.00;;;4.70
15575;BMP180;7888;46.748;8.102;2023-03-01T07:40:19;94003.00;;;4.60
15575;BMP180;7888;46.748;8.102;2023-03-01T07:42:45;94005.00;;;4.70
15575;BMP180;7888;46.748;8.102;2023-03-01T07:45:11;94009.00;;;4.70
15575;BMP180;7888;46.748;8.102;2023-03-01T07:47:39;94001.00;;;4.70
15575;BMP180;7888;46.748;8.102;2023-03-01T07:50:05;93992.00;;;4.70
15575;BMP180;7888;46.748;8.102;2023-03-01T07:52:31;93976.00;;;4.80
15575;BMP180;7888;46.748;8.102;2023-03-01T07:54:57;93994.00;;;4.80
15575;BMP180;7888;46.748;8.102;2023-03-01T07:57:24;93982.00;;;4.70
15575;BMP180;7888;46.748;8.102;2023-03-01T07:59:49;93995.00;;;4.70
15575;BMP180;7888;46.748;8.102;2023-03-01T08:02:15;93982.00;;;4.70
15575;BMP180;7888;46.748;8.102;2023-03-01T08:04:42;93986.00;;;4.60
15575;BMP180;7888;46.748;8.102;2023-03-01T08:07:08;93987.00;;;4.60
15575;BMP180;7888;46.748;8.102;2023-03-01T08:09:35;93988.00;;;4.60
15575;BMP180;7888;46.748;8.102;2023-03-01T08:12:03;93993.00;;;4.50
15575;BMP180;7888;46.748;8.102;2023-03-01T08:14:34;93999.00;;;4.50
15575;BMP180;7888;46.748;8.102;2023-03-01T08:17:00;93990.00;;;4.50
15575;BMP180;7888;46.748;8.102;2023-03-01T08:19:28;93987.00;;;4.50
15575;BMP180;7888;46.748;8.102;2023-03-01T08:21:54;93984.00;;;4.50
15575;BMP180;7888;46.748;8.102;2023-03-01T08:24:20;93981.00;;;4.40
15575;BMP180;7888;46.748;8.102;2023-03-01T08:26:46;93994.00;;;4.40
15575;BMP180;7888;46.748;8.102;2023-03-01T08:29:12;93991.00;;;4.40
15575;BMP180;7888;46.748;8.102;2023-03-01T08:31:40;94001.00;;;4.40
15575;BMP180;7888;46.748;8.102;2023-03-01T08:34:11;93993.00;;;4.40
15575;BMP180;7888;46.748;8.102;2023-03-01T08:36:44;93982.00;;;4.40
15575;BMP180;7888;46.748;8.102;2023-03-01T08:39:14;93981.00;;;4.40
15575;BMP180;7888;46.748;8.102;2023-03-01T08:41:41;93992.00;;;4.50
15575;BMP180;7888;46.748;8.102;2023-03-01T08:44:09;93980.00;;;4.50
15575;BMP180;7888;46.748;8.102;2023-03-01T08:46:38;93993.00;;;4.40
15575;BMP180;7888;46.748;8.102;2023-03-01T08:49:18;93987.00;;;4.50
15575;BMP180;7888;46.748;8.102;2023-03-01T08:51:46;93980.00;;;4.50
15575;BMP180;7888;46.748;8.102;2023-03-01T08:54:16;93977.00;;;4.50
15575;BMP180;7888;46.748;8.102;2023-03-01T08:56:42;93973.00;;;4.50
15575;BMP180;7888;46.748;8.102;2023-03-01T08:59:14;93985.00;;;4.60
15575;BMP180;7888;46.748;8.102;2023-03-01T09:01:41;93981.00;;;4.70
15575;BMP180;7888;46.748;8.102;2023-03-01T09:04:11;93980.00;;;4.70
15575;BMP180;7888;46.748;8.102;2023-03-01T09:06:37;93966.00;;;4.80
15575;BMP180;7888;46.748;8.102;2023-03-01T09:09:07;93978.00;;;4.90
15575;BMP180;7888;46.748;8.102;2023-03-01T09:11:37;93974.00;;;5.00
15575;BMP180;7888;46.748;8.102;2023-03-01T09:14:05;93958.00;;;5.00
15575;BMP180;7888;46.748;8.102;2023-03-01T09:16:31;93962.00;;;5.00
15575;BMP180;7888;46.748;8.102;2023-03-01T09:19:02;93975.00;;;5.00
15575;BMP180;7888;46.748;8.102;2023-03-01T09:21:28;93969.00;;;5.00
15575;BMP180;7888;46.748;8.102;2023-03-01T09:23:57;93966.00;;;5.10
15575;BMP180;7888;46.748;8.102;2023-03-01T09:26:23;93976.00;;;5.20
15575;BMP180;7888;46.748;8.102;2023-03-01T09:28:53;93976.00;;;5.30
15575;BMP180;7888;46.748;8.102;2023-03-01T09:31:22;93978.00;;;5.40
15575;BMP180;7888;46.748;8.102;2023-03-01T09:33:52;93961.00;;;5.40
15575;BMP180;7888;46.748;8.102;2023-03-01T09:36:21;93966.00;;;5.50
15575;BMP180;7888;46.748;8.102;2023-03-01T09:38:49;93956.00;;;5.50
15575;BMP180;7888;46.748;8.102;2023-03-01T09:45:03;93970.00;;;5.60
15575;BMP180;7888;46.748;8.102;2023-03-01T09:47:21;93969.00;;;5.70
15575;BMP180;7888;46.748;8.102;2023-03-01T09:50:01;93985.00;;;5.70
15575;BMP180;7888;46.748;8.102;2023-03-01T09:52:54;93951.00;;;5.70
15575;BMP180;7888;46.748;8.102;2023-03-01T10:07:27;93962.00;;;6.00
15575;BMP180;7888;46.748;8.102;2023-03-01T10:09:55;93972.00;;;6.10
15575;BMP180;7888;46.748;8.102;2023-03-01T10:12:27;93965.00;;;6.20
15575;BMP180;7888;46.748;8.102;2023-03-01T10:18:04;93963.00;;;6.30
15575;BMP180;7888;46.748;8.102;2023-03-01T10:20:46;93974.00;;;6.30
15575;BMP180;7888;46.748;8.102;2023-03-01T10:23:14;93962.00;;;6.30
15575;BMP180;7888;46.748;8.102;2023-03-01T10:28:58;93972.00;;;6.40
15575;BMP180;7888;46.748;8.102;2023-03-01T10:31:52;93958.00;;;6.40
15575;BMP180;7888;46.748;8.102;2023-03-01T10:34:30;93964.00;;;6.50
15575;BMP180;7888;46.748;8.102;2023-03-01T10:37:21;93972.00;;;6.50
15575;BMP180;7888;46.748;8.102;2023-03-01T10:40:06;93963.00;;;6.60
15575;BMP180;7888;46.748;8.102;2023-03-01T10:42:46;93973.00;;;6.60
15575;BMP180;7888;46.748;8.102;2023-03-01T10:47:45;93962.00;;;6.60
15575;BMP180;7888;46.748;8.102;2023-03-01T10:50:22;93956.00;;;6.60
15575;BMP180;7888;46.748;8.102;2023-03-01T10:53:01;93950.00;;;6.60
15575;BMP180;7888;46.748;8.102;2023-03-01T10:55:39;93958.00;;;6.60
15575;BMP180;7888;46.748;8.102;2023-03-01T11:00:53;93953.00;;;6.70
15575;BMP180;7888;46.748;8.102;2023-03-01T11:03:35;93956.00;;;6.70
15575;BMP180;7888;46.748;8.102;2023-03-01T11:08:44;93945.00;;;6.80
15575;BMP180;7888;46.748;8.102;2023-03-01T11:11:32;93938.00;;;6.90
15575;BMP180;7888;46.748;8.102;2023-03-01T11:14:21;93939.00;;;6.90
15575;BMP180;7888;46.748;8.102;2023-03-01T11:17:43;93942.00;;;6.90
15575;BMP180;7888;46.748;8.102;2023-03-01T11:20:01;93938.00;;;6.90
15575;BMP180;7888;46.748;8.102;2023-03-01T11:22:32;93928.00;;;7.00
15575;BMP180;7888;46.748;8.102;2023-03-01T11:25:00;93925.00;;;7.00
15575;BMP180;7888;46.748;8.102;2023-03-01T11:27:31;93929.00;;;7.10
15575;BMP180;7888;46.748;8.102;2023-03-01T11:30:20;93939.00;;;7.20
15575;BMP180;7888;46.748;8.102;2023-03-01T11:33:13;93927.00;;;7.20
15575;BMP180;7888;46.748;8.102;2023-03-01T11:36:00;93929.00;;;7.30
15575;BMP180;7888;46.748;8.102;2023-03-01T11:38:30;93925.00;;;7.40
15575;BMP180;7888;46.748;8.102;2023-03-01T11:41:21;93920.00;;;7.50
15575;BMP180;7888;46.748;8.102;2023-03-01T11:44:15;93919.00;;;7.60
15575;BMP180;7888;46.748;8.102;2023-03-01T11:50:16;93904.00;;;7.70
15575;BMP180;7888;46.748;8.102;2023-03-01T12:07:40;93872.00;;;7.70
15575;BMP180;7888;46.748;8.102;2023-03-01T12:10:22;93879.00;;;7.80
15575;BMP180;7888;46.748;8.102;2023-03-01T12:16:07;93853.00;;;7.70
15575;BMP180;7888;46.748;8.102;2023-03-01T12:42:35;93862.00;;;7.60
15575;BMP180;7888;46.748;8.102;2023-03-01T12:51:06;93857.00;;;7.80
15575;BMP180;7888;46.748;8.102;2023-03-01T12:53:46;93845.00;;;7.80
15575;BMP180;7888;46.748;8.102;2023-03-01T12:56:19;93848.00;;;7.90
15575;BMP180;7888;46.748;8.102;2023-03-01T13:10:46;93846.00;;;8.30
15575;BMP180;7888;46.748;8.102;2023-03-01T13:13:26;93831.00;;;8.40
15575;BMP180;7888;46.748;8.102;2023-03-01T13:15:53;93828.00;;;8.50
15575;BMP180;7888;46.748;8.102;2023-03-01T13:20:51;93822.00;;;8.60
15575;BMP180;7888;46.748;8.102;2023-03-01T13:26:06;93831.00;;;8.80
15575;BMP180;7888;46.748;8.102;2023-03-01T13:33:49;93831.00;;;9.00
15575;BMP180;7888;46.748;8.102;2023-03-01T13:38:59;93833.00;;;9.20
15575;BMP180;7888;46.748;8.102;2023-03-01T13:46:58;93826.00;;;9.30
15575;BMP180;7888;46.748;8.102;2023-03-01T13:50:18;93829.00;;;9.30
15575;BMP180;7888;46.748;8.102;2023-03-01T13:52:45;93834.00;;;9.40
15575;BMP180;7888;46.748;8.102;2023-03-01T13:57:47;93849.00;;;9.60
15575;BMP180;7888;46.748;8.102;2023-03-01T14:00:36;93848.00;;;9.70
15575;BMP180;7888;46.748;8.102;2023-03-01T14:03:17;93857.00;;;9.90
15575;BMP180;7888;46.748;8.102;2023-03-01T14:06:04;93850.00;;;10.00
15575;BMP180;7888;46.748;8.102;2023-03-01T14:08:37;93844.00;;;10.10
15575;BMP180;7888;46.748;8.102;2023-03-01T14:20:03;93859.00;;;10.20
15575;BMP180;7888;46.748;8.102;2023-03-01T14:22:35;93846.00;;;10.20
15575;BMP180;7888;46.748;8.102;2023-03-01T14:25:17;93852.00;;;10.10
15575;BMP180;7888;46.748;8.102;2023-03-01T14:27:44;93833.00;;;10.20
15575;BMP180;7888;46.748;8.102;2023-03-01T14:30:24;93835.00;;;10.10
15575;BMP180;7888;46.748;8.102;2023-03-01T14:33:00;93822.00;;;10.10
15575;BMP180;7888;46.748;8.102;2023-03-01T14:35:31;93838.00;;;10.10
15575;BMP180;7888;46.748;8.102;2023-03-01T14:37:57;93823.00;;;10.10
15575;BMP180;7888;46.748;8.102;2023-03-01T14:40:35;93829.00;;;10.20
15575;BMP180;7888;46.748;8.102;2023-03-01T14:43:09;93814.00;;;10.20
15575;BMP180;7888;46.748;8.102;2023-03-01T14:45:36;93825.00;;;10.40
15575;BMP180;7888;46.748;8.102;2023-03-01T14:48:05;93835.00;;;10.50
15575;BMP180;7888;46.748;8.102;2023-03-01T14:50:35;93828.00;;;10.70
15575;BMP180;7888;46.748;8.102;2023-03-01T14:53:07;93827.00;;;10.80
15575;BMP180;7888;46.748;8.102;2023-03-01T14:55:45;93826.00;;;10.90
15575;BMP180;7888;46.748;8.102;2023-03-01T14:58:19;93822.00;;;11.00
15575;BMP180;7888;46.748;8.102;2023-03-01T15:00:56;93818.00;;;11.10
15575;BMP180;7888;46.748;8.102;2023-03-01T15:03:36;93828.00;;;11.10
15575;BMP180;7888;46.748;8.102;2023-03-01T15:06:05;93832.00;;;11.20
15575;BMP180;7888;46.748;8.102;2023-03-01T15:08:32;93826.00;;;11.20
15575;BMP180;7888;46.748;8.102;2023-03-01T15:11:27;93836.00;;;11.20
15575;BMP180;7888;46.748;8.102;2023-03-01T15:13:54;93837.00;;;11.30
15575;BMP180;7888;46.748;8.102;2023-03-01T15:16:28;93827.00;;;11.30
15575;BMP180;7888;46.748;8.102;2023-03-01T15:18:59;93839.00;;;11.40
15575;BMP180;7888;46.748;8.102;2023-03-01T15:21:36;93832.00;;;11.30
15575;BMP180;7888;46.748;8.102;2023-03-01T15:26:57;93826.00;;;11.20
15575;BMP180;7888;46.748;8.102;2023-03-01T15:29:27;93828.00;;;11.10
15575;BMP180;7888;46.748;8.102;2023-03-01T15:32:20;93813.00;;;11.00
15575;BMP180;7888;46.748;8.102;2023-03-01T15:34:48;93804.00;;;10.90
15575;BMP180;7888;46.748;8.102;2023-03-01T15:37:46;93816.00;;;10.70
15575;BMP180;7888;46.748;8.102;2023-03-01T15:40:25;93820.00;;;10.60
15575;BMP180;7888;46.748;8.102;2023-03-01T15:43:02;93809.00;;;10.50
15575;BMP180;7888;46.748;8.102;2023-03-01T15:45:31;93816.00;;;10.50
15575;BMP180;7888;46.748;8.102;2023-03-01T15:48:22;93812.00;;;10.40
15575;BMP180;7888;46.748;8.102;2023-03-01T15:50:59;93820.00;;;10.30
15575;BMP180;7888;46.748;8.102;2023-03-01T15:53:28;93808.00;;;10.20
15575;BMP180;7888;46.748;8.102;2023-03-01T15:55:54;93812.00;;;10.20
15575;BMP180;7888;46.748;8.102;2023-03-01T15:58:23;93807.00;;;10.20
15575;BMP180;7888;46.748;8.102;2023-03-01T16:00:51;93808.00;;;10.20
15575;BMP180;7888;46.748;8.102;2023-03-01T16:03:22;93811.00;;;10.10
15575;BMP180;7888;46.748;8.102;2023-03-01T16:05:51;93813.00;;;10.00
15575;BMP180;7888;46.748;8.102;2023-03-01T16:08:18;93816.00;;;10.00
15575;BMP180;7888;46.748;8.102;2023-03-01T16:10:45;93823.00;;;9.90
15575;BMP180;7888;46.748;8.102;2023-03-01T16:13:14;93812.00;;;9.90
15575;BMP180;7888;46.748;8.102;2023-03-01T16:15:40;93822.00;;;9.90
15575;BMP180;7888;46.748;8.102;2023-03-01T16:18:06;93824.00;;;9.80
15575;BMP180;7888;46.748;8.102;2023-03-01T16:20:34;93818.00;;;9.80
15575;BMP180;7888;46.748;8.102;2023-03-01T16:23:06;93818.00;;;9.70
15575;BMP180;7888;46.748;8.102;2023-03-01T16:25:33;93820.00;;;9.70
15575;BMP180;7888;46.748;8.102;2023-03-01T16:28:00;93825.00;;;9.60
15575;BMP180;7888;46.748;8.102;2023-03-01T16:30:30;93817.00;;;9.60
15575;BMP180;7888;46.748;8.102;2023-03-01T16:32:56;93824.00;;;9.60
15575;BMP180;7888;46.748;8.102;2023-03-01T16:35:22;93829.00;;;9.60
15575;BMP180;7888;46.748;8.102;2023-03-01T16:37:49;93826.00;;;9.70
15575;BMP180;7888;46.748;8.102;2023-03-01T16:40:25;93828.00;;;9.70
15575;BMP180;7888;46.748;8.102;2023-03-01T16:42:53;93826.00;;;9.70
15575;BMP180;7888;46.748;8.102;2023-03-01T16:45:20;93823.00;;;9.70
15575;BMP180;7888;46.748;8.102;2023-03-01T16:47:46;93831.00;;;9.70
15575;BMP180;7888;46.748;8.102;2023-03-01T16:50:12;93825.00;;;9.70
15575;BMP180;7888;46.748;8.102;2023-03-01T16:52:38;93837.00;;;9.70
15575;BMP180;7888;46.748;8.102;2023-03-01T16:55:06;93835.00;;;9.70
15575;BMP180;7888;46.748;8.102;2023-03-01T16:57:37;93823.00;;;9.60
15575;BMP180;7888;46.748;8.102;2023-03-01T17:00:05;93837.00;;;9.60
15575;BMP180;7888;46.748;8.102;2023-03-01T17:02:36;93838.00;;;9.60
15575;BMP180;7888;46.748;8.102;2023-03-01T17:05:04;93836.00;;;9.60
15575;BMP180;7888;46.748;8.102;2023-03-01T17:07:31;93841.00;;;9.50
15575;BMP180;7888;46.748;8.102;2023-03-01T17:10:03;93837.00;;;9.50
15575;BMP180;7888;46.748;8.102;2023-03-01T17:12:29;93839.00;;;9.40
15575;BMP180;7888;46.748;8.102;2023-03-01T17:14:55;93842.00;;;9.40
15575;BMP180;7888;46.748;8.102;2023-03-01T17:17:21;93848.00;;;9.40